sensor_id;sensor_type;location;lat;lon;timestamp;P1;durP1;ratioP1;P2;durP2;ratioP2
47151;SDS011;32906;48.542;12.136;2022-08-21T00:00:18;5.13;;;2.30;;
47151;SDS011;32906;48.542;12.136;2022-08-21T00:02:46;3.25;;;1.73;;
47151;SDS011;32906;48.542;12.136;2022-08-21T00:05:14;7.28;;;2.50;;
47151;SDS011;32906;48.542;12.136;2022-08-21T00:07:43;2.38;;;2.10;;
47151;SDS011;32906;48.542;12.136;2022-08-21T00:10:10;4.93;;;2.17;;
47151;SDS011;32906;48.542;12.136;2022-08-21T00:12:38;2.53;;;2.03;;
47151;SDS011;32906;48.542;12.136;2022-08-21T00:15:06;3.75;;;2.00;;
47151;SDS011;32906;48.542;12.136;2022-08-21T00:17:34;3.60;;;2.08;;
47151;SDS011;32906;48.542;12.136;2022-08-21T00:20:03;1.77;;;1.27;;
47151;SDS011;32906;48.542;12.136;2022-08-21T00:22:30;1.95;;;1.65;;
47151;SDS011;32906;48.542;12.136;2022-08-21T00:24:59;3.25;;;1.88;;
47151;SDS011;32906;48.542;12.136;2022-08-21T00:27:26;3.53;;;1.75;;
47151;SDS011;32906;48.542;12.136;2022-08-21T00:29:53;3.15;;;1.67;;
47151;SDS011;32906;48.542;12.136;2022-08-21T00:32:21;5.15;;;2.30;;
47151;SDS011;32906;48.542;12.136;2022-08-21T00:34:48;3.33;;;1.80;;
47151;SDS011;32906;48.542;12.136;2022-08-21T00:37:16;2.55;;;1.80;;
47151;SDS011;32906;48.542;12.136;2022-08-21T00:39:43;8.65;;;2.45;;
47151;SDS011;32906;48.542;12.136;2022-08-21T00:42:12;2.92;;;2.20;;
47151;SDS011;32906;48.542;12.136;2022-08-21T00:44:40;3.97;;;2.45;;
47151;SDS011;32906;48.542;12.136;2022-08-21T00:47:09;2.30;;;2.10;;
47151;SDS011;32906;48.542;12.136;2022-08-21T00:49:36;8.85;;;2.55;;
47151;SDS011;32906;48.542;12.136;2022-08-21T00:52:03;4.50;;;1.83;;
47151;SDS011;32906;48.542;12.136;2022-08-21T00:54:32;2.40;;;1.88;;
47151;SDS011;32906;48.542;12.136;2022-08-21T00:57:02;2.20;;;1.80;;
47151;SDS011;32906;48.542;12.136;2022-08-21T00:59:33;3.03;;;2.28;;
47151;SDS011;32906;48.542;12.136;2022-08-21T01:02:01;2.90;;;2.03;;
47151;SDS011;32906;48.542;12.136;2022-08-21T01:04:28;2.55;;;1.70;;
47151;SDS011;32906;48.542;12.136;2022-08-21T01:06:56;2.03;;;1.40;;
47151;SDS011;32906;48.542;12.136;2022-08-21T01:09:23;6.28;;;3.03;;
47151;SDS011;32906;48.542;12.136;2022-08-21T01:11:50;4.35;;;2.10;;
47151;SDS011;32906;48.542;12.136;2022-08-21T01:14:18;2.15;;;1.40;;
47151;SDS011;32906;48.542;12.136;2022-08-21T01:16:48;4.93;;;1.50;;
47151;SDS011;32906;48.542;12.136;2022-08-21T01:19:17;3.05;;;1.88;;
47151;SDS011;32906;48.542;12.136;2022-08-21T01:21:47;2.00;;;1.33;;
47151;SDS011;32906;48.542;12.136;2022-08-21T01:26:41;3.67;;;1.17;;
47151;SDS011;32906;48.542;12.136;2022-08-21T01:29:12;1.90;;;1.50;;
47151;SDS011;32906;48.542;12.136;2022-08-21T01:31:41;1.60;;;1.02;;
47151;SDS011;32906;48.542;12.136;2022-08-21T01:34:09;3.08;;;1.35;;
47151;SDS011;32906;48.542;12.136;2022-08-21T01:36:39;3.63;;;1.30;;
47151;SDS011;32906;48.542;12.136;2022-08-21T01:39:08;3.42;;;1.25;;
47151;SDS011;32906;48.542;12.136;2022-08-21T01:41:35;1.98;;;1.20;;
47151;SDS011;32906;48.542;12.136;2022-08-21T01:44:03;3.00;;;0.93;;
47151;SDS011;32906;48.542;12.136;2022-08-21T01:46:30;3.47;;;0.82;;
47151;SDS011;32906;48.542;12.136;2022-08-21T01:48:58;1.98;;;0.70;;
47151;SDS011;32906;48.542;12.136;2022-08-21T01:51:25;5.57;;;2.03;;
47151;SDS011;32906;48.542;12.136;2022-08-21T01:53:52;3.05;;;0.75;;
47151;SDS011;32906;48.542;12.136;2022-08-21T01:56:21;3.63;;;1.30;;
47151;SDS011;32906;48.542;12.136;2022-08-21T01:58:48;1.58;;;0.93;;
47151;SDS011;32906;48.542;12.136;2022-08-21T02:01:16;1.73;;;1.00;;
47151;SDS011;32906;48.542;12.136;2022-08-21T02:03:43;4.05;;;0.90;;
47151;SDS011;32906;48.542;12.136;2022-08-21T02:06:12;1.70;;;1.08;;
47151;SDS011;32906;48.542;12.136;2022-08-21T02:08:40;1.58;;;0.93;;
47151;SDS011;32906;48.542;12.136;2022-08-21T02:11:07;2.95;;;0.90;;
47151;SDS011;32906;48.542;12.136;2022-08-21T02:13:35;1.30;;;1.13;;
47151;SDS011;32906;48.542;12.136;2022-08-21T02:16:03;1.20;;;0.80;;
47151;SDS011;32906;48.542;12.136;2022-08-21T02:18:30;3.33;;;1.50;;
47151;SDS011;32906;48.542;12.136;2022-08-21T02:20:58;1.10;;;0.75;;
47151;SDS011;32906;48.542;12.136;2022-08-21T02:23:25;1.85;;;1.17;;
47151;SDS011;32906;48.542;12.136;2022-08-21T02:25:52;2.92;;;1.05;;
47151;SDS011;32906;48.542;12.136;2022-08-21T02:28:19;1.17;;;0.88;;
47151;SDS011;32906;48.542;12.136;2022-08-21T02:30:49;1.30;;;0.70;;
47151;SDS011;32906;48.542;12.136;2022-08-21T02:33:16;1.88;;;0.68;;
47151;SDS011;32906;48.542;12.136;2022-08-21T02:35:44;1.27;;;0.70;;
47151;SDS011;32906;48.542;12.136;2022-08-21T02:38:12;1.70;;;1.00;;
47151;SDS011;32906;48.542;12.136;2022-08-21T02:40:41;3.08;;;0.90;;
47151;SDS011;32906;48.542;12.136;2022-08-21T02:43:09;3.80;;;0.98;;
47151;SDS011;32906;48.542;12.136;2022-08-21T02:45:37;2.65;;;0.82;;
47151;SDS011;32906;48.542;12.136;2022-08-21T02:48:07;3.75;;;0.85;;
47151;SDS011;32906;48.542;12.136;2022-08-21T02:50:35;0.77;;;0.50;;
47151;SDS011;32906;48.542;12.136;2022-08-21T02:53:03;1.15;;;0.65;;
47151;SDS011;32906;48.542;12.136;2022-08-21T02:55:32;1.67;;;0.88;;
47151;SDS011;32906;48.542;12.136;2022-08-21T02:58:00;2.47;;;0.73;;
47151;SDS011;32906;48.542;12.136;2022-08-21T03:00:29;1.63;;;0.80;;
47151;SDS011;32906;48.542;12.136;2022-08-21T03:02:57;1.20;;;0.55;;
47151;SDS011;32906;48.542;12.136;2022-08-21T03:05:27;1.23;;;0.55;;
47151;SDS011;32906;48.542;12.136;2022-08-21T03:07:57;1.98;;;0.60;;
47151;SDS011;32906;48.542;12.136;2022-08-21T03:10:24;1.65;;;0.50;;
47151;SDS011;32906;48.542;12.136;2022-08-21T03:12:52;1.27;;;0.57;;
47151;SDS011;32906;48.542;12.136;2022-08-21T03:15:20;1.02;;;0.60;;
47151;SDS011;32906;48.542;12.136;2022-08-21T03:17:48;1.10;;;0.65;;
47151;SDS011;32906;48.542;12.136;2022-08-21T03:20:18;1.48;;;0.70;;
47151;SDS011;32906;48.542;12.136;2022-08-21T03:22:49;1.15;;;0.55;;
47151;SDS011;32906;48.542;12.136;2022-08-21T03:25:16;3.08;;;0.77;;
47151;SDS011;32906;48.542;12.136;2022-08-21T03:27:44;1.23;;;0.95;;
47151;SDS011;32906;48.542;12.136;2022-08-21T03:30:12;4.60;;;0.85;;
47151;SDS011;32906;48.542;12.136;2022-08-21T03:32:39;2.65;;;0.70;;
47151;SDS011;32906;48.542;12.136;2022-08-21T03:35:07;1.50;;;0.77;;
47151;SDS011;32906;48.542;12.136;2022-08-21T03:37:34;2.20;;;0.90;;
47151;SDS011;32906;48.542;12.136;2022-08-21T03:40:04;1.77;;;0.73;;
47151;SDS011;32906;48.542;12.136;2022-08-21T03:42:31;1.05;;;0.50;;
47151;SDS011;32906;48.542;12.136;2022-08-21T03:44:58;3.38;;;0.65;;
47151;SDS011;32906;48.542;12.136;2022-08-21T03:47:25;2.45;;;0.63;;
47151;SDS011;32906;48.542;12.136;2022-08-21T03:49:53;1.52;;;0.60;;
47151;SDS011;32906;48.542;12.136;2022-08-21T03:52:20;1.27;;;0.68;;
47151;SDS011;32906;48.542;12.136;2022-08-21T03:54:48;1.27;;;0.77;;
47151;SDS011;32906;48.542;12.136;2022-08-21T03:57:17;0.88;;;0.65;;
47151;SDS011;32906;48.542;12.136;2022-08-21T03:59:44;1.10;;;0.60;;
47151;SDS011;32906;48.542;12.136;2022-08-21T04:02:12;1.17;;;0.80;;
47151;SDS011;32906;48.542;12.136;2022-08-21T04:04:41;1.30;;;0.85;;
47151;SDS011;32906;48.542;12.136;2022-08-21T04:07:08;0.93;;;0.52;;
47151;SDS011;32906;48.542;12.136;2022-08-21T04:09:35;3.60;;;0.90;;
47151;SDS011;32906;48.542;12.136;2022-08-21T04:12:03;3.13;;;1.38;;
47151;SDS011;32906;48.542;12.136;2022-08-21T04:14:32;3.88;;;0.68;;
47151;SDS011;32906;48.542;12.136;2022-08-21T04:16:59;1.00;;;0.70;;
47151;SDS011;32906;48.542;12.136;2022-08-21T04:19:26;1.58;;;0.52;;
47151;SDS011;32906;48.542;12.136;2022-08-21T04:21:53;3.10;;;0.70;;
47151;SDS011;32906;48.542;12.136;2022-08-21T04:24:21;0.80;;;0.60;;
47151;SDS011;32906;48.542;12.136;2022-08-21T04:26:48;1.45;;;0.70;;
47151;SDS011;32906;48.542;12.136;2022-08-21T04:29:15;1.95;;;1.00;;
47151;SDS011;32906;48.542;12.136;2022-08-21T04:31:44;1.52;;;0.80;;
47151;SDS011;32906;48.542;12.136;2022-08-21T04:34:11;2.15;;;0.82;;
47151;SDS011;32906;48.542;12.136;2022-08-21T04:36:38;1.52;;;0.70;;
47151;SDS011;32906;48.542;12.136;2022-08-21T04:39:06;1.13;;;1.00;;
47151;SDS011;32906;48.542;12.136;2022-08-21T04:41:33;1.50;;;0.90;;
47151;SDS011;32906;48.542;12.136;2022-08-21T04:44:01;1.20;;;0.60;;
47151;SDS011;32906;48.542;12.136;2022-08-21T04:46:29;2.92;;;0.73;;
47151;SDS011;32906;48.542;12.136;2022-08-21T04:48:57;2.55;;;0.60;;
47151;SDS011;32906;48.542;12.136;2022-08-21T04:51:25;1.17;;;0.52;;
47151;SDS011;32906;48.542;12.136;2022-08-21T04:53:55;1.17;;;0.70;;
47151;SDS011;32906;48.542;12.136;2022-08-21T04:56:25;1.85;;;0.75;;
47151;SDS011;32906;48.542;12.136;2022-08-21T04:58:54;1.27;;;0.63;;
47151;SDS011;32906;48.542;12.136;2022-08-21T05:01:22;3.20;;;0.90;;
47151;SDS011;32906;48.542;12.136;2022-08-21T05:03:51;1.33;;;0.70;;
47151;SDS011;32906;48.542;12.136;2022-08-21T05:06:20;1.55;;;0.60;;
47151;SDS011;32906;48.542;12.136;2022-08-21T05:08:48;2.50;;;1.17;;
47151;SDS011;32906;48.542;12.136;2022-08-21T05:11:17;2.60;;;0.88;;
47151;SDS011;32906;48.542;12.136;2022-08-21T05:13:44;2.22;;;0.90;;
47151;SDS011;32906;48.542;12.136;2022-08-21T05:16:12;2.08;;;1.27;;
47151;SDS011;32906;48.542;12.136;2022-08-21T05:18:39;2.45;;;0.93;;
47151;SDS011;32906;48.542;12.136;2022-08-21T05:21:06;2.97;;;1.13;;
47151;SDS011;32906;48.542;12.136;2022-08-21T05:23:36;1.10;;;0.70;;
47151;SDS011;32906;48.542;12.136;2022-08-21T05:26:03;4.53;;;1.95;;
47151;SDS011;32906;48.542;12.136;2022-08-21T05:28:31;2.28;;;1.17;;
47151;SDS011;32906;48.542;12.136;2022-08-21T05:30:58;1.80;;;0.80;;
47151;SDS011;32906;48.542;12.136;2022-08-21T05:33:26;1.40;;;1.00;;
47151;SDS011;32906;48.542;12.136;2022-08-21T05:35:53;3.42;;;0.95;;
47151;SDS011;32906;48.542;12.136;2022-08-21T05:38:22;2.83;;;1.00;;
47151;SDS011;32906;48.542;12.136;2022-08-21T05:40:50;2.83;;;1.38;;
47151;SDS011;32906;48.542;12.136;2022-08-21T05:43:18;2.35;;;1.13;;
47151;SDS011;32906;48.542;12.136;2022-08-21T05:45:45;1.40;;;0.70;;
47151;SDS011;32906;48.542;12.136;2022-08-21T05:48:13;2.63;;;1.10;;
47151;SDS011;32906;48.542;12.136;2022-08-21T05:50:42;4.75;;;1.08;;
47151;SDS011;32906;48.542;12.136;2022-08-21T05:53:10;4.05;;;1.10;;
47151;SDS011;32906;48.542;12.136;2022-08-21T05:55:37;2.28;;;1.10;;
47151;SDS011;32906;48.542;12.136;2022-08-21T05:58:06;3.47;;;1.08;;
47151;SDS011;32906;48.542;12.136;2022-08-21T06:00:34;1.60;;;1.20;;
47151;SDS011;32906;48.542;12.136;2022-08-21T06:03:01;3.03;;;0.98;;
47151;SDS011;32906;48.542;12.136;2022-08-21T06:05:28;2.70;;;1.15;;
47151;SDS011;32906;48.542;12.136;2022-08-21T06:07:56;1.85;;;0.80;;
47151;SDS011;32906;48.542;12.136;2022-08-21T06:10:23;1.33;;;0.73;;
47151;SDS011;32906;48.542;12.136;2022-08-21T06:12:52;1.60;;;0.93;;
47151;SDS011;32906;48.542;12.136;2022-08-21T06:15:21;1.77;;;0.85;;
47151;SDS011;32906;48.542;12.136;2022-08-21T06:17:49;1.92;;;1.13;;
47151;SDS011;32906;48.542;12.136;2022-08-21T06:20:16;1.38;;;1.08;;
47151;SDS011;32906;48.542;12.136;2022-08-21T06:22:43;3.70;;;1.00;;
47151;SDS011;32906;48.542;12.136;2022-08-21T06:25:10;1.73;;;0.93;;
47151;SDS011;32906;48.542;12.136;2022-08-21T06:27:38;2.42;;;0.90;;
47151;SDS011;32906;48.542;12.136;2022-08-21T06:30:05;3.25;;;1.08;;
47151;SDS011;32906;48.542;12.136;2022-08-21T06:32:35;1.75;;;1.00;;
47151;SDS011;32906;48.542;12.136;2022-08-21T06:35:02;1.30;;;1.02;;
47151;SDS011;32906;48.542;12.136;2022-08-21T06:37:30;1.23;;;1.00;;
47151;SDS011;32906;48.542;12.136;2022-08-21T06:39:57;3.25;;;1.25;;
47151;SDS011;32906;48.542;12.136;2022-08-21T06:42:25;1.45;;;1.13;;
47151;SDS011;32906;48.542;12.136;2022-08-21T06:44:54;1.77;;;0.88;;
47151;SDS011;32906;48.542;12.136;2022-08-21T06:47:21;1.90;;;1.20;;
47151;SDS011;32906;48.542;12.136;2022-08-21T06:49:49;2.38;;;1.25;;
47151;SDS011;32906;48.542;12.136;2022-08-21T06:52:17;3.85;;;0.98;;
47151;SDS011;32906;48.542;12.136;2022-08-21T06:54:44;2.75;;;1.70;;
47151;SDS011;32906;48.542;12.136;2022-08-21T06:57:11;2.80;;;1.35;;
47151;SDS011;32906;48.542;12.136;2022-08-21T06:59:38;1.48;;;1.30;;
47151;SDS011;32906;48.542;12.136;2022-08-21T07:02:06;12.77;;;2.33;;
47151;SDS011;32906;48.542;12.136;2022-08-21T07:04:33;2.75;;;1.23;;
47151;SDS011;32906;48.542;12.136;2022-08-21T07:07:02;2.65;;;1.90;;
47151;SDS011;32906;48.542;12.136;2022-08-21T07:09:30;2.20;;;1.00;;
47151;SDS011;32906;48.542;12.136;2022-08-21T07:11:58;2.33;;;1.50;;
47151;SDS011;32906;48.542;12.136;2022-08-21T07:14:25;3.05;;;2.60;;
47151;SDS011;32906;48.542;12.136;2022-08-21T07:16:52;10.43;;;5.10;;
47151;SDS011;32906;48.542;12.136;2022-08-21T07:19:19;8.30;;;4.75;;
47151;SDS011;32906;48.542;12.136;2022-08-21T07:21:47;6.28;;;3.67;;
47151;SDS011;32906;48.542;12.136;2022-08-21T07:24:16;6.43;;;4.82;;
47151;SDS011;32906;48.542;12.136;2022-08-21T07:26:43;8.43;;;5.70;;
47151;SDS011;32906;48.542;12.136;2022-08-21T07:29:10;8.35;;;6.32;;
47151;SDS011;32906;48.542;12.136;2022-08-21T07:31:38;7.25;;;6.55;;
47151;SDS011;32906;48.542;12.136;2022-08-21T07:34:05;8.48;;;5.93;;
47151;SDS011;32906;48.542;12.136;2022-08-21T07:36:33;6.53;;;5.78;;
47151;SDS011;32906;48.542;12.136;2022-08-21T07:39:00;5.93;;;5.32;;
47151;SDS011;32906;48.542;12.136;2022-08-21T07:41:29;5.10;;;4.47;;
47151;SDS011;32906;48.542;12.136;2022-08-21T07:43:57;5.97;;;5.38;;
47151;SDS011;32906;48.542;12.136;2022-08-21T07:46:25;7.85;;;6.40;;
47151;SDS011;32906;48.542;12.136;2022-08-21T07:48:53;7.25;;;6.05;;
47151;SDS011;32906;48.542;12.136;2022-08-21T07:51:22;4.80;;;4.30;;
47151;SDS011;32906;48.542;12.136;2022-08-21T07:53:51;10.38;;;6.25;;
47151;SDS011;32906;48.542;12.136;2022-08-21T07:56:19;6.20;;;5.57;;
47151;SDS011;32906;48.542;12.136;2022-08-21T07:58:48;6.50;;;5.90;;
47151;SDS011;32906;48.542;12.136;2022-08-21T08:01:15;7.63;;;6.43;;
47151;SDS011;32906;48.542;12.136;2022-08-21T08:03:42;7.15;;;6.20;;
47151;SDS011;32906;48.542;12.136;2022-08-21T08:06:10;8.07;;;6.57;;
47151;SDS011;32906;48.542;12.136;2022-08-21T08:08:39;7.10;;;6.38;;
47151;SDS011;32906;48.542;12.136;2022-08-21T08:11:06;6.70;;;6.10;;
47151;SDS011;32906;48.542;12.136;2022-08-21T08:13:37;7.05;;;6.35;;
47151;SDS011;32906;48.542;12.136;2022-08-21T08:16:06;6.18;;;5.57;;
47151;SDS011;32906;48.542;12.136;2022-08-21T08:18:34;7.45;;;6.60;;
47151;SDS011;32906;48.542;12.136;2022-08-21T08:21:01;5.22;;;4.75;;
47151;SDS011;32906;48.542;12.136;2022-08-21T08:23:28;6.50;;;5.88;;
47151;SDS011;32906;48.542;12.136;2022-08-21T08:25:57;6.57;;;5.85;;
47151;SDS011;32906;48.542;12.136;2022-08-21T08:28:24;6.18;;;5.55;;
47151;SDS011;32906;48.542;12.136;2022-08-21T08:30:52;6.75;;;6.10;;
47151;SDS011;32906;48.542;12.136;2022-08-21T08:33:21;6.60;;;6.00;;
47151;SDS011;32906;48.542;12.136;2022-08-21T08:35:49;5.82;;;5.25;;
47151;SDS011;32906;48.542;12.136;2022-08-21T08:38:17;5.22;;;4.70;;
47151;SDS011;32906;48.542;12.136;2022-08-21T08:40:46;6.25;;;5.65;;
47151;SDS011;32906;48.542;12.136;2022-08-21T08:43:14;6.18;;;5.68;;
47151;SDS011;32906;48.542;12.136;2022-08-21T08:45:42;7.63;;;5.75;;
47151;SDS011;32906;48.542;12.136;2022-08-21T08:48:12;7.70;;;5.93;;
47151;SDS011;32906;48.542;12.136;2022-08-21T08:50:44;7.13;;;6.43;;
47151;SDS011;32906;48.542;12.136;2022-08-21T08:53:14;7.15;;;6.45;;
47151;SDS011;32906;48.542;12.136;2022-08-21T08:55:43;7.50;;;6.80;;
47151;SDS011;32906;48.542;12.136;2022-08-21T08:58:12;8.32;;;6.85;;
47151;SDS011;32906;48.542;12.136;2022-08-21T09:00:40;6.50;;;5.82;;
47151;SDS011;32906;48.542;12.136;2022-08-21T09:03:07;6.57;;;5.97;;
47151;SDS011;32906;48.542;12.136;2022-08-21T09:05:37;6.53;;;6.03;;
47151;SDS011;32906;48.542;12.136;2022-08-21T09:08:14;6.10;;;5.47;;
47151;SDS011;32906;48.542;12.136;2022-08-21T09:10:45;6.75;;;5.80;;
47151;SDS011;32906;48.542;12.136;2022-08-21T09:13:16;7.57;;;5.93;;
47151;SDS011;32906;48.542;12.136;2022-08-21T09:15:47;6.90;;;6.15;;
47151;SDS011;32906;48.542;12.136;2022-08-21T09:18:20;6.45;;;5.85;;
47151;SDS011;32906;48.542;12.136;2022-08-21T09:20:58;6.30;;;5.65;;
47151;SDS011;32906;48.542;12.136;2022-08-21T09:23:32;6.90;;;6.30;;
47151;SDS011;32906;48.542;12.136;2022-08-21T09:26:04;6.80;;;6.22;;
47151;SDS011;32906;48.542;12.136;2022-08-21T09:28:34;7.60;;;5.68;;
47151;SDS011;32906;48.542;12.136;2022-08-21T09:31:03;13.15;;;7.57;;
47151;SDS011;32906;48.542;12.136;2022-08-21T09:33:32;18.30;;;8.95;;
47151;SDS011;32906;48.542;12.136;2022-08-21T09:35:59;15.70;;;7.93;;
47151;SDS011;32906;48.542;12.136;2022-08-21T09:38:28;8.73;;;6.30;;
47151;SDS011;32906;48.542;12.136;2022-08-21T09:40:59;8.02;;;6.28;;
47151;SDS011;32906;48.542;12.136;2022-08-21T09:43:27;10.43;;;6.25;;
47151;SDS011;32906;48.542;12.136;2022-08-21T09:46:03;10.85;;;7.15;;
47151;SDS011;32906;48.542;12.136;2022-08-21T09:48:37;7.57;;;5.22;;
47151;SDS011;32906;48.542;12.136;2022-08-21T09:51:05;9.52;;;7.47;;
47151;SDS011;32906;48.542;12.136;2022-08-21T09:53:33;8.88;;;6.82;;
47151;SDS011;32906;48.542;12.136;2022-08-21T09:56:03;10.25;;;6.63;;
47151;SDS011;32906;48.542;12.136;2022-08-21T09:58:49;6.15;;;5.47;;
47151;SDS011;32906;48.542;12.136;2022-08-21T10:01:18;7.95;;;6.63;;
47151;SDS011;32906;48.542;12.136;2022-08-21T10:03:46;16.02;;;11.52;;
47151;SDS011;32906;48.542;12.136;2022-08-21T10:06:21;9.65;;;8.35;;
47151;SDS011;32906;48.542;12.136;2022-08-21T10:08:48;6.60;;;5.88;;
47151;SDS011;32906;48.542;12.136;2022-08-21T10:11:17;6.70;;;4.85;;
47151;SDS011;32906;48.542;12.136;2022-08-21T10:13:51;6.05;;;5.53;;
47151;SDS011;32906;48.542;12.136;2022-08-21T10:16:27;6.22;;;4.93;;
47151;SDS011;32906;48.542;12.136;2022-08-21T10:19:01;5.32;;;4.82;;
47151;SDS011;32906;48.542;12.136;2022-08-21T10:21:32;5.10;;;4.65;;
47151;SDS011;32906;48.542;12.136;2022-08-21T10:24:03;4.78;;;4.35;;
47151;SDS011;32906;48.542;12.136;2022-08-21T10:26:39;6.80;;;6.20;;
47151;SDS011;32906;48.542;12.136;2022-08-21T10:29:14;5.85;;;5.10;;
47151;SDS011;32906;48.542;12.136;2022-08-21T10:31:49;5.70;;;5.20;;
47151;SDS011;32906;48.542;12.136;2022-08-21T10:34:21;6.63;;;5.70;;
47151;SDS011;32906;48.542;12.136;2022-08-21T10:36:55;10.27;;;7.35;;
47151;SDS011;32906;48.542;12.136;2022-08-21T10:39:27;8.27;;;6.50;;
47151;SDS011;32906;48.542;12.136;2022-08-21T10:42:06;6.80;;;6.28;;
47151;SDS011;32906;48.542;12.136;2022-08-21T10:44:38;33.80;;;12.05;;
47151;SDS011;32906;48.542;12.136;2022-08-21T10:47:11;11.85;;;8.95;;
47151;SDS011;32906;48.542;12.136;2022-08-21T10:49:41;11.82;;;7.82;;
47151;SDS011;32906;48.542;12.136;2022-08-21T10:52:16;8.35;;;7.47;;
47151;SDS011;32906;48.542;12.136;2022-08-21T10:54:47;9.27;;;7.40;;
47151;SDS011;32906;48.542;12.136;2022-08-21T10:57:19;9.57;;;6.78;;
47151;SDS011;32906;48.542;12.136;2022-08-21T10:59:51;6.43;;;5.82;;
47151;SDS011;32906;48.542;12.136;2022-08-21T11:05:05;6.90;;;6.40;;
47151;SDS011;32906;48.542;12.136;2022-08-21T11:07:36;6.85;;;6.15;;
47151;SDS011;32906;48.542;12.136;2022-08-21T11:10:04;7.93;;;6.85;;
47151;SDS011;32906;48.542;12.136;2022-08-21T11:12:36;6.20;;;5.60;;
47151;SDS011;32906;48.542;12.136;2022-08-21T11:15:07;8.35;;;7.60;;
47151;SDS011;32906;48.542;12.136;2022-08-21T11:17:39;6.50;;;5.88;;
47151;SDS011;32906;48.542;12.136;2022-08-21T11:20:09;8.18;;;7.38;;
47151;SDS011;32906;48.542;12.136;2022-08-21T11:22:38;6.47;;;5.90;;
47151;SDS011;32906;48.542;12.136;2022-08-21T11:25:08;8.07;;;6.78;;
47151;SDS011;32906;48.542;12.136;2022-08-21T11:27:40;7.65;;;5.70;;
47151;SDS011;32906;48.542;12.136;2022-08-21T11:30:10;5.97;;;5.47;;
47151;SDS011;32906;48.542;12.136;2022-08-21T11:32:51;7.43;;;6.75;;
47151;SDS011;32906;48.542;12.136;2022-08-21T11:35:24;6.90;;;6.30;;
47151;SDS011;32906;48.542;12.136;2022-08-21T11:37:57;6.75;;;6.15;;
47151;SDS011;32906;48.542;12.136;2022-08-21T11:40:34;7.43;;;6.80;;
47151;SDS011;32906;48.542;12.136;2022-08-21T11:43:07;7.43;;;6.82;;
47151;SDS011;32906;48.542;12.136;2022-08-21T11:45:39;7.45;;;6.75;;
47151;SDS011;32906;48.542;12.136;2022-08-21T11:48:08;6.53;;;5.97;;
47151;SDS011;32906;48.542;12.136;2022-08-21T11:50:36;6.20;;;5.68;;
47151;SDS011;32906;48.542;12.136;2022-08-21T11:53:09;8.60;;;7.80;;
47151;SDS011;32906;48.542;12.136;2022-08-21T11:55:38;7.32;;;6.63;;
47151;SDS011;32906;48.542;12.136;2022-08-21T11:58:10;7.05;;;6.45;;
47151;SDS011;32906;48.542;12.136;2022-08-21T12:00:40;5.72;;;5.22;;
47151;SDS011;32906;48.542;12.136;2022-08-21T12:03:11;5.55;;;4.95;;
47151;SDS011;32906;48.542;12.136;2022-08-21T12:05:44;6.32;;;5.68;;
47151;SDS011;32906;48.542;12.136;2022-08-21T12:08:13;6.07;;;5.47;;
47151;SDS011;32906;48.542;12.136;2022-08-21T12:10:45;6.15;;;5.43;;
47151;SDS011;32906;48.542;12.136;2022-08-21T12:13:24;5.60;;;5.10;;
47151;SDS011;32906;48.542;12.136;2022-08-21T12:15:51;6.32;;;5.72;;
47151;SDS011;32906;48.542;12.136;2022-08-21T12:18:21;6.72;;;6.13;;
47151;SDS011;32906;48.542;12.136;2022-08-21T12:21:02;11.65;;;5.57;;
47151;SDS011;32906;48.542;12.136;2022-08-21T12:23:31;7.00;;;6.38;;
47151;SDS011;32906;48.542;12.136;2022-08-21T12:26:00;8.55;;;6.85;;
47151;SDS011;32906;48.542;12.136;2022-08-21T12:28:29;7.47;;;6.70;;
47151;SDS011;32906;48.542;12.136;2022-08-21T12:30:57;8.02;;;6.55;;
47151;SDS011;32906;48.542;12.136;2022-08-21T12:33:26;6.57;;;5.95;;
47151;SDS011;32906;48.542;12.136;2022-08-21T12:36:01;5.65;;;5.15;;
47151;SDS011;32906;48.542;12.136;2022-08-21T12:38:29;5.22;;;4.57;;
47151;SDS011;32906;48.542;12.136;2022-08-21T12:40:59;6.40;;;5.90;;
47151;SDS011;32906;48.542;12.136;2022-08-21T12:43:30;7.28;;;6.38;;
47151;SDS011;32906;48.542;12.136;2022-08-21T12:45:58;5.50;;;5.00;;
47151;SDS011;32906;48.542;12.136;2022-08-21T12:48:29;6.18;;;5.57;;
47151;SDS011;32906;48.542;12.136;2022-08-21T12:50:58;5.57;;;4.68;;
47151;SDS011;32906;48.542;12.136;2022-08-21T12:53:32;4.55;;;4.18;;
47151;SDS011;32906;48.542;12.136;2022-08-21T12:56:02;4.30;;;3.97;;
47151;SDS011;32906;48.542;12.136;2022-08-21T12:58:31;4.32;;;3.92;;
47151;SDS011;32906;48.542;12.136;2022-08-21T13:01:00;5.68;;;4.32;;
47151;SDS011;32906;48.542;12.136;2022-08-21T13:03:28;4.35;;;3.90;;
47151;SDS011;32906;48.542;12.136;2022-08-21T13:05:56;4.00;;;3.67;;
47151;SDS011;32906;48.542;12.136;2022-08-21T13:08:24;3.50;;;3.20;;
47151;SDS011;32906;48.542;12.136;2022-08-21T13:10:56;3.40;;;3.10;;
47151;SDS011;32906;48.542;12.136;2022-08-21T13:13:25;4.68;;;4.25;;
47151;SDS011;32906;48.542;12.136;2022-08-21T13:15:57;4.28;;;3.88;;
47151;SDS011;32906;48.542;12.136;2022-08-21T13:18:26;4.05;;;3.75;;
47151;SDS011;32906;48.542;12.136;2022-08-21T13:21:03;4.00;;;3.70;;
47151;SDS011;32906;48.542;12.136;2022-08-21T13:23:31;3.78;;;3.45;;
47151;SDS011;32906;48.542;12.136;2022-08-21T13:25:58;2.45;;;2.13;;
47151;SDS011;32906;48.542;12.136;2022-08-21T13:28:32;2.85;;;2.55;;
47151;SDS011;32906;48.542;12.136;2022-08-21T13:31:01;4.28;;;2.38;;
47151;SDS011;32906;48.542;12.136;2022-08-21T13:33:29;4.63;;;2.95;;
47151;SDS011;32906;48.542;12.136;2022-08-21T13:35:59;3.72;;;3.05;;
47151;SDS011;32906;48.542;12.136;2022-08-21T13:38:29;3.28;;;3.08;;
47151;SDS011;32906;48.542;12.136;2022-08-21T13:40:57;3.20;;;2.90;;
47151;SDS011;32906;48.542;12.136;2022-08-21T13:43:25;2.00;;;1.63;;
47151;SDS011;32906;48.542;12.136;2022-08-21T13:45:54;2.35;;;2.15;;
47151;SDS011;32906;48.542;12.136;2022-08-21T13:48:24;1.85;;;1.70;;
47151;SDS011;32906;48.542;12.136;2022-08-21T13:50:52;2.40;;;1.80;;
47151;SDS011;32906;48.542;12.136;2022-08-21T13:53:21;1.85;;;1.33;;
47151;SDS011;32906;48.542;12.136;2022-08-21T13:55:49;2.53;;;1.70;;
47151;SDS011;32906;48.542;12.136;2022-08-21T13:58:23;4.22;;;1.85;;
47151;SDS011;32906;48.542;12.136;2022-08-21T14:00:51;3.17;;;1.90;;
47151;SDS011;32906;48.542;12.136;2022-08-21T14:03:26;2.63;;;1.70;;
47151;SDS011;32906;48.542;12.136;2022-08-21T14:05:53;2.42;;;1.90;;
47151;SDS011;32906;48.542;12.136;2022-08-21T14:08:24;3.20;;;1.63;;
47151;SDS011;32906;48.542;12.136;2022-08-21T14:10:54;2.10;;;1.10;;
47151;SDS011;32906;48.542;12.136;2022-08-21T14:13:34;2.60;;;1.73;;
47151;SDS011;32906;48.542;12.136;2022-08-21T14:16:02;1.92;;;1.55;;
47151;SDS011;32906;48.542;12.136;2022-08-21T14:18:31;4.47;;;1.33;;
47151;SDS011;32906;48.542;12.136;2022-08-21T14:21:06;5.00;;;1.20;;
47151;SDS011;32906;48.542;12.136;2022-08-21T14:23:34;2.70;;;1.50;;
47151;SDS011;32906;48.542;12.136;2022-08-21T14:26:02;3.33;;;1.63;;
47151;SDS011;32906;48.542;12.136;2022-08-21T14:28:31;3.78;;;1.42;;
47151;SDS011;32906;48.542;12.136;2022-08-21T14:30:59;3.60;;;1.67;;
47151;SDS011;32906;48.542;12.136;2022-08-21T14:33:39;2.63;;;1.60;;
47151;SDS011;32906;48.542;12.136;2022-08-21T14:36:06;1.73;;;1.45;;
47151;SDS011;32906;48.542;12.136;2022-08-21T14:38:35;1.65;;;1.52;;
47151;SDS011;32906;48.542;12.136;2022-08-21T14:41:03;2.58;;;1.65;;
47151;SDS011;32906;48.542;12.136;2022-08-21T14:43:31;2.15;;;1.55;;
47151;SDS011;32906;48.542;12.136;2022-08-21T14:45:58;1.70;;;1.20;;
47151;SDS011;32906;48.542;12.136;2022-08-21T14:48:27;3.33;;;1.20;;